sensor_id;sensor_type;location;lat;lon;timestamp;pressure;altitude;pressure_sealevel;temperature;humidity
79527;BME280;68974;47.754;-3.364;2023-06-26T00:01:40;102136.53;;;18.51;66.96
79527;BME280;68974;47.754;-3.364;2023-06-26T00:04:05;102144.44;;;18.44;66.97
79527;BME280;68974;47.754;-3.364;2023-06-26T00:06:31;102133.22;;;18.49;67.13
79527;BME280;68974;47.754;-3.364;2023-06-26T00:08:56;102133.00;;;18.45;67.15
79527;BME280;68974;47.754;-3.364;2023-06-26T00:11:24;102136.00;;;18.49;67.33
79527;BME280;68974;47.754;-3.364;2023-06-26T00:13:50;102138.84;;;18.44;67.56
79527;BME280;68974;47.754;-3.364;2023-06-26T00:16:15;102136.72;;;18.59;66.86
79527;BME280;68974;47.754;-3.364;2023-06-26T00:18:41;102130.66;;;18.52;67.20
79527;BME280;68974;47.754;-3.364;2023-06-26T00:21:06;102137.75;;;18.45;67.64
79527;BME280;68974;47.754;-3.364;2023-06-26T00:23:32;102137.63;;;18.55;67.76
79527;BME280;68974;47.754;-3.364;2023-06-26T00:26:04;102142.50;;;18.63;67.19
79527;BME280;68974;47.754;-3.364;2023-06-26T00:28:30;102136.63;;;18.46;67.41
79527;BME280;68974;47.754;-3.364;2023-06-26T00:30:55;102141.56;;;18.49;67.54
79527;BME280;68974;47.754;-3.364;2023-06-26T00:33:21;102143.72;;;18.33;67.67
79527;BME280;68974;47.754;-3.364;2023-06-26T00:35:47;102141.28;;;18.32;68.35
79527;BME280;68974;47.754;-3.364;2023-06-26T00:38:12;102136.16;;;18.39;67.98
79527;BME280;68974;47.754;-3.364;2023-06-26T00:40:38;102142.91;;;18.33;68.26
79527;BME280;68974;47.754;-3.364;2023-06-26T00:43:03;102149.69;;;18.27;68.48
79527;BME280;68974;47.754;-3.364;2023-06-26T00:45:29;102152.53;;;18.22;68.42
79527;BME280;68974;47.754;-3.364;2023-06-26T00:47:54;102154.63;;;18.30;68.27
79527;BME280;68974;47.754;-3.364;2023-06-26T00:50:20;102156.97;;;18.23;68.54
79527;BME280;68974;47.754;-3.364;2023-06-26T00:52:46;102157.63;;;18.14;68.90
79527;BME280;68974;47.754;-3.364;2023-06-26T00:55:12;102161.06;;;18.06;68.98
79527;BME280;68974;47.754;-3.364;2023-06-26T00:57:37;102154.19;;;17.99;69.43
79527;BME280;68974;47.754;-3.364;2023-06-26T01:00:03;102152.50;;;18.03;69.60
79527;BME280;68974;47.754;-3.364;2023-06-26T01:02:30;102164.75;;;18.02;69.39
79527;BME280;68974;47.754;-3.364;2023-06-26T01:05:02;102166.03;;;18.09;68.92
79527;BME280;68974;47.754;-3.364;2023-06-26T01:07:34;102173.66;;;17.99;69.60
79527;BME280;68974;47.754;-3.364;2023-06-26T01:10:03;102169.59;;;17.91;69.64
79527;BME280;68974;47.754;-3.364;2023-06-26T01:12:30;102170.31;;;18.02;69.18
79527;BME280;68974;47.754;-3.364;2023-06-26T01:14:57;102171.13;;;18.02;69.26
79527;BME280;68974;47.754;-3.364;2023-06-26T01:17:23;102174.53;;;17.94;69.87
79527;BME280;68974;47.754;-3.364;2023-06-26T01:19:49;102179.00;;;17.95;69.75
79527;BME280;68974;47.754;-3.364;2023-06-26T01:27:54;102179.47;;;18.02;69.29
79527;BME280;68974;47.754;-3.364;2023-06-26T01:30:21;102174.53;;;17.94;69.27
79527;BME280;68974;47.754;-3.364;2023-06-26T01:32:47;102177.31;;;17.94;69.17
79527;BME280;68974;47.754;-3.364;2023-06-26T01:35:14;102176.22;;;17.95;69.49
79527;BME280;68974;47.754;-3.364;2023-06-26T01:37:40;102181.78;;;17.95;69.48
79527;BME280;68974;47.754;-3.364;2023-06-26T01:40:06;102181.78;;;17.95;69.18
79527;BME280;68974;47.754;-3.364;2023-06-26T01:42:34;102185.66;;;17.94;69.23
79527;BME280;68974;47.754;-3.364;2023-06-26T01:45:10;102178.69;;;17.97;69.12
79527;BME280;68974;47.754;-3.364;2023-06-26T01:47:40;102180.38;;;17.98;69.32
79527;BME280;68974;47.754;-3.364;2023-06-26T01:50:29;102175.75;;;17.88;68.96
79527;BME280;68974;47.754;-3.364;2023-06-26T01:53:17;102179.66;;;17.87;69.37
79527;BME280;68974;47.754;-3.364;2023-06-26T01:55:54;102179.00;;;17.95;69.27
79527;BME280;68974;47.754;-3.364;2023-06-26T01:58:23;102186.81;;;17.93;69.40
79527;BME280;68974;47.754;-3.364;2023-06-26T02:00:49;102185.66;;;17.94;69.00
79527;BME280;68974;47.754;-3.364;2023-06-26T02:03:14;102182.66;;;17.91;69.27
79527;BME280;68974;47.754;-3.364;2023-06-26T02:05:40;102175.50;;;17.85;68.66
79527;BME280;68974;47.754;-3.364;2023-06-26T02:08:07;102189.38;;;17.85;68.97
79527;BME280;68974;47.754;-3.364;2023-06-26T02:10:33;102183.53;;;17.86;69.05
79527;BME280;68974;47.754;-3.364;2023-06-26T02:12:59;102190.28;;;17.80;69.37
79527;BME280;68974;47.754;-3.364;2023-06-26T02:15:25;102198.34;;;17.82;69.03
79527;BME280;68974;47.754;-3.364;2023-06-26T02:17:50;102193.00;;;17.85;68.98
79527;BME280;68974;47.754;-3.364;2023-06-26T02:20:16;102192.53;;;17.78;68.69
79527;BME280;68974;47.754;-3.364;2023-06-26T02:22:41;102201.16;;;17.77;69.13
79527;BME280;68974;47.754;-3.364;2023-06-26T02:25:07;102197.00;;;17.74;68.83
79527;BME280;68974;47.754;-3.364;2023-06-26T02:27:33;102194.00;;;17.70;69.27
79527;BME280;68974;47.754;-3.364;2023-06-26T02:29:58;102194.31;;;17.69;69.45
79527;BME280;68974;47.754;-3.364;2023-06-26T02:32:24;102201.50;;;17.70;69.53
79527;BME280;68974;47.754;-3.364;2023-06-26T02:34:49;102199.78;;;17.74;68.79
79527;BME280;68974;47.754;-3.364;2023-06-26T02:37:17;102203.16;;;17.71;69.24
79527;BME280;68974;47.754;-3.364;2023-06-26T02:39:42;102199.38;;;17.62;69.33
79527;BME280;68974;47.754;-3.364;2023-06-26T02:42:08;102206.59;;;17.63;69.50
79527;BME280;68974;47.754;-3.364;2023-06-26T02:44:33;102203.81;;;17.58;69.64
79527;BME280;68974;47.754;-3.364;2023-06-26T02:46:59;102205.78;;;17.57;69.50
79527;BME280;68974;47.754;-3.364;2023-06-26T02:49:24;102208.78;;;17.66;69.05
79527;BME280;68974;47.754;-3.364;2023-06-26T02:51:49;102209.38;;;17.63;68.99
79527;BME280;68974;47.754;-3.364;2023-06-26T02:54:15;102208.25;;;17.64;69.09
79527;BME280;68974;47.754;-3.364;2023-06-26T02:56:40;102201.03;;;17.63;68.87
79527;BME280;68974;47.754;-3.364;2023-06-26T02:59:05;102201.09;;;17.53;68.83
79527;BME280;68974;47.754;-3.364;2023-06-26T03:01:31;102201.63;;;17.55;68.98
79527;BME280;68974;47.754;-3.364;2023-06-26T03:03:56;102204.94;;;17.57;68.66
79527;BME280;68974;47.754;-3.364;2023-06-26T03:06:21;102200.03;;;17.49;68.95
79527;BME280;68974;47.754;-3.364;2023-06-26T03:08:47;102200.13;;;17.39;68.87
79527;BME280;68974;47.754;-3.364;2023-06-26T03:11:12;102201.78;;;17.40;68.86
79527;BME280;68974;47.754;-3.364;2023-06-26T03:13:38;102193.72;;;17.38;68.90
79527;BME280;68974;47.754;-3.364;2023-06-26T03:16:04;102200.72;;;17.30;68.44
79527;BME280;68974;47.754;-3.364;2023-06-26T03:18:30;102198.31;;;17.24;69.55
79527;BME280;68974;47.754;-3.364;2023-06-26T03:20:56;102196.91;;;17.21;69.00
79527;BME280;68974;47.754;-3.364;2023-06-26T03:23:22;102197.25;;;17.20;68.96
79527;BME280;68974;47.754;-3.364;2023-06-26T03:25:49;102195.84;;;17.17;69.07
79527;BME280;68974;47.754;-3.364;2023-06-26T03:28:14;102194.75;;;17.18;68.81
79527;BME280;68974;47.754;-3.364;2023-06-26T03:30:40;102193.06;;;17.17;68.76
79527;BME280;68974;47.754;-3.364;2023-06-26T03:33:05;102192.75;;;17.24;68.89
79527;BME280;68974;47.754;-3.364;2023-06-26T03:35:31;102198.03;;;17.20;68.60
79527;BME280;68974;47.754;-3.364;2023-06-26T03:37:57;102193.06;;;17.17;68.73
79527;BME280;68974;47.754;-3.364;2023-06-26T03:40:23;102200.28;;;17.18;68.59
79527;BME280;68974;47.754;-3.364;2023-06-26T03:42:48;102208.06;;;17.16;68.45
79527;BME280;68974;47.754;-3.364;2023-06-26T03:45:14;102198.16;;;17.10;68.79
79527;BME280;68974;47.754;-3.364;2023-06-26T03:47:39;102197.56;;;17.13;68.66
79527;BME280;68974;47.754;-3.364;2023-06-26T03:50:05;102202.59;;;17.06;68.99
79527;BME280;68974;47.754;-3.364;2023-06-26T03:52:31;102207.91;;;17.03;69.15
79527;BME280;68974;47.754;-3.364;2023-06-26T03:54:59;102201.19;;;17.09;68.38
79527;BME280;68974;47.754;-3.364;2023-06-26T03:57:25;102204.84;;;17.04;69.14
79527;BME280;68974;47.754;-3.364;2023-06-26T03:59:52;102199.84;;;17.01;68.93
79527;BME280;68974;47.754;-3.364;2023-06-26T04:02:17;102208.78;;;16.98;69.22
79527;BME280;68974;47.754;-3.364;2023-06-26T04:04:43;102202.59;;;17.06;68.76
79527;BME280;68974;47.754;-3.364;2023-06-26T04:07:09;102206.56;;;17.00;69.03
79527;BME280;68974;47.754;-3.364;2023-06-26T04:09:35;102204.81;;;17.09;68.49
79527;BME280;68974;47.754;-3.364;2023-06-26T04:12:00;102206.50;;;17.05;68.59
79527;BME280;68974;47.754;-3.364;2023-06-26T04:14:26;102204.84;;;17.04;68.47
79527;BME280;68974;47.754;-3.364;2023-06-26T04:16:51;102209.00;;;17.02;68.76
79527;BME280;68974;47.754;-3.364;2023-06-26T04:19:17;102210.41;;;17.04;68.88
79527;BME280;68974;47.754;-3.364;2023-06-26T04:21:43;102211.47;;;17.08;68.22
79527;BME280;68974;47.754;-3.364;2023-06-26T04:24:08;102212.06;;;17.05;68.58
79527;BME280;68974;47.754;-3.364;2023-06-26T04:26:34;102218.94;;;17.13;68.46
79527;BME280;68974;47.754;-3.364;2023-06-26T04:28:59;102219.53;;;17.10;68.46
79527;BME280;68974;47.754;-3.364;2023-06-26T04:31:25;102236.50;;;17.03;68.13
79527;BME280;68974;47.754;-3.364;2023-06-26T04:33:50;102226.03;;;16.95;68.48
79527;BME280;68974;47.754;-3.364;2023-06-26T04:36:17;102226.28;;;16.94;68.48
79527;BME280;68974;47.754;-3.364;2023-06-26T04:38:43;102227.09;;;16.99;68.19
79527;BME280;68974;47.754;-3.364;2023-06-26T04:41:08;102232.09;;;16.97;68.44
79527;BME280;68974;47.754;-3.364;2023-06-26T04:43:34;102232.66;;;16.99;67.99
79527;BME280;68974;47.754;-3.364;2023-06-26T04:45:59;102228.16;;;17.03;68.13
79527;BME280;68974;47.754;-3.364;2023-06-26T04:48:24;102231.19;;;17.07;68.63
79527;BME280;68974;47.754;-3.364;2023-06-26T04:50:53;102236.44;;;17.13;69.13
79527;BME280;68974;47.754;-3.364;2023-06-26T04:53:20;102238.34;;;17.18;68.68
79527;BME280;68974;47.754;-3.364;2023-06-26T04:55:46;102241.38;;;17.16;68.88
79527;BME280;68974;47.754;-3.364;2023-06-26T04:58:11;102253.53;;;17.25;68.84
79527;BME280;68974;47.754;-3.364;2023-06-26T05:00:37;102242.44;;;17.25;68.73
79527;BME280;68974;47.754;-3.364;2023-06-26T05:03:02;102245.84;;;17.17;68.90
79527;BME280;68974;47.754;-3.364;2023-06-26T05:05:28;102247.94;;;17.30;68.31
79527;BME280;68974;47.754;-3.364;2023-06-26T05:07:54;102254.72;;;17.19;68.85
79527;BME280;68974;47.754;-3.364;2023-06-26T05:10:20;102260.75;;;17.26;68.68
79527;BME280;68974;47.754;-3.364;2023-06-26T05:12:46;102253.50;;;17.30;68.06
79527;BME280;68974;47.754;-3.364;2023-06-26T05:15:11;102265.19;;;17.27;67.95
79527;BME280;68974;47.754;-3.364;2023-06-26T05:17:36;102266.28;;;17.31;67.62
79527;BME280;68974;47.754;-3.364;2023-06-26T05:20:02;102272.91;;;17.36;67.83
79527;BME280;68974;47.754;-3.364;2023-06-26T05:22:29;102271.81;;;17.31;67.94
79527;BME280;68974;47.754;-3.364;2023-06-26T05:24:55;102264.59;;;17.30;68.03
79527;BME280;68974;47.754;-3.364;2023-06-26T05:27:21;102252.38;;;17.31;67.88
79527;BME280;68974;47.754;-3.364;2023-06-26T05:29:50;102259.06;;;17.30;66.98
79527;BME280;68974;47.754;-3.364;2023-06-26T05:32:16;102263.97;;;17.44;67.29
79527;BME280;68974;47.754;-3.364;2023-06-26T05:34:47;102266.06;;;17.62;66.46
79527;BME280;68974;47.754;-3.364;2023-06-26T05:37:21;102275.25;;;17.57;66.56
79527;BME280;68974;47.754;-3.364;2023-06-26T05:39:47;102272.22;;;17.59;66.09
79527;BME280;68974;47.754;-3.364;2023-06-26T05:42:12;102276.00;;;17.68;66.42
79527;BME280;68974;47.754;-3.364;2023-06-26T05:44:38;102280.09;;;17.75;66.59
79527;BME280;68974;47.754;-3.364;2023-06-26T05:47:03;102282.19;;;17.60;66.39
79527;BME280;68974;47.754;-3.364;2023-06-26T05:49:29;102280.06;;;17.81;66.15
79527;BME280;68974;47.754;-3.364;2023-06-26T05:51:55;102273.56;;;17.90;65.74
79527;BME280;68974;47.754;-3.364;2023-06-26T05:54:20;102272.16;;;17.93;65.69
79527;BME280;68974;47.754;-3.364;2023-06-26T05:56:47;102275.72;;;17.98;65.06
79527;BME280;68974;47.754;-3.364;2023-06-26T05:59:14;102270.09;;;18.03;64.61
79527;BME280;68974;47.754;-3.364;2023-06-26T06:01:40;102269.47;;;18.11;64.70
79527;BME280;68974;47.754;-3.364;2023-06-26T06:04:05;102262.66;;;18.23;64.95
79527;BME280;68974;47.754;-3.364;2023-06-26T06:06:30;102256.44;;;18.31;64.80
79527;BME280;68974;47.754;-3.364;2023-06-26T06:08:56;102266.31;;;18.18;64.56
79527;BME280;68974;47.754;-3.364;2023-06-26T06:11:21;102268.47;;;18.26;64.72
79527;BME280;68974;47.754;-3.364;2023-06-26T06:13:47;102277.63;;;18.27;64.69
79527;BME280;68974;47.754;-3.364;2023-06-26T06:16:13;102279.34;;;18.23;64.61
79527;BME280;68974;47.754;-3.364;2023-06-26T06:18:38;102276.56;;;18.23;64.59
79527;BME280;68974;47.754;-3.364;2023-06-26T06:21:03;102284.16;;;18.41;64.37
79527;BME280;68974;47.754;-3.364;2023-06-26T06:23:29;102290.69;;;18.55;63.79
79527;BME280;68974;47.754;-3.364;2023-06-26T06:25:54;102279.94;;;18.67;63.21
79527;BME280;68974;47.754;-3.364;2023-06-26T06:28:20;102290.16;;;18.72;63.16
79527;BME280;68974;47.754;-3.364;2023-06-26T06:30:45;102287.84;;;18.79;62.15
79527;BME280;68974;47.754;-3.364;2023-06-26T06:33:13;102283.88;;;18.85;61.93
79527;BME280;68974;47.754;-3.364;2023-06-26T06:35:38;102299.47;;;18.86;61.99
79527;BME280;68974;47.754;-3.364;2023-06-26T06:38:03;102301.66;;;18.89;61.53
79527;BME280;68974;47.754;-3.364;2023-06-26T06:40:29;102309.25;;;19.02;61.53
79527;BME280;68974;47.754;-3.364;2023-06-26T06:42:54;102308.81;;;19.14;61.64
79527;BME280;68974;47.754;-3.364;2023-06-26T06:45:19;102305.34;;;19.22;61.13
79527;BME280;68974;47.754;-3.364;2023-06-26T06:47:45;102314.44;;;19.27;60.01
79527;BME280;68974;47.754;-3.364;2023-06-26T06:50:10;102314.72;;;19.50;60.47
79527;BME280;68974;47.754;-3.364;2023-06-26T06:52:40;102322.28;;;19.63;59.28
79527;BME280;68974;47.754;-3.364;2023-06-26T06:55:07;102328.13;;;19.80;58.86
79527;BME280;68974;47.754;-3.364;2023-06-26T06:57:35;102319.28;;;19.92;58.33
79527;BME280;68974;47.754;-3.364;2023-06-26T07:00:10;102331.81;;;19.75;58.15
79527;BME280;68974;47.754;-3.364;2023-06-26T07:02:36;102340.84;;;19.86;57.95
79527;BME280;68974;47.754;-3.364;2023-06-26T07:05:03;102337.41;;;20.08;57.59
79527;BME280;68974;47.754;-3.364;2023-06-26T07:07:32;102334.16;;;19.87;57.55
79527;BME280;68974;47.754;-3.364;2023-06-26T07:09:59;102335.84;;;20.02;56.78
79527;BME280;68974;47.754;-3.364;2023-06-26T07:12:24;102344.88;;;20.12;56.83
79527;BME280;68974;47.754;-3.364;2023-06-26T07:14:50;102349.72;;;20.20;56.53
79527;BME280;68974;47.754;-3.364;2023-06-26T07:17:15;102351.50;;;20.30;56.18
79527;BME280;68974;47.754;-3.364;2023-06-26T07:19:40;102349.56;;;20.44;55.94
79527;BME280;68974;47.754;-3.364;2023-06-26T07:22:06;102353.53;;;20.70;56.31
79527;BME280;68974;47.754;-3.364;2023-06-26T07:24:31;102356.81;;;20.72;54.60
79527;BME280;68974;47.754;-3.364;2023-06-26T07:26:57;102355.38;;;20.89;53.15
79527;BME280;68974;47.754;-3.364;2023-06-26T07:29:23;102350.91;;;21.01;52.79
79527;BME280;68974;47.754;-3.364;2023-06-26T07:31:48;102353.25;;;21.35;52.41
79527;BME280;68974;47.754;-3.364;2023-06-26T07:34:14;102349.59;;;21.71;51.48
79527;BME280;68974;47.754;-3.364;2023-06-26T07:36:39;102353.91;;;21.77;50.83
79527;BME280;68974;47.754;-3.364;2023-06-26T07:39:05;102353.91;;;21.77;51.22
79527;BME280;68974;47.754;-3.364;2023-06-26T07:41:30;102358.44;;;21.86;51.29
79527;BME280;68974;47.754;-3.364;2023-06-26T07:43:57;102354.69;;;21.69;49.67
79527;BME280;68974;47.754;-3.364;2023-06-26T07:46:23;102357.25;;;22.01;49.13
79527;BME280;68974;47.754;-3.364;2023-06-26T07:48:49;102354.13;;;22.33;47.91
79527;BME280;68974;47.754;-3.364;2023-06-26T07:51:14;102359.31;;;22.48;47.27
79527;BME280;68974;47.754;-3.364;2023-06-26T07:53:39;102358.41;;;22.62;46.04
79527;BME280;68974;47.754;-3.364;2023-06-26T07:56:05;102351.06;;;22.83;46.45
79527;BME280;68974;47.754;-3.364;2023-06-26T07:58:30;102354.22;;;22.90;45.45
79527;BME280;68974;47.754;-3.364;2023-06-26T08:00:56;102353.13;;;22.69;46.16
79527;BME280;68974;47.754;-3.364;2023-06-26T08:03:21;102356.19;;;22.81;45.19
79527;BME280;68974;47.754;-3.364;2023-06-26T08:05:46;102352.13;;;22.65;44.70
79527;BME280;68974;47.754;-3.364;2023-06-26T08:08:12;102358.13;;;22.72;44.08
79527;BME280;68974;47.754;-3.364;2023-06-26T08:10:37;102365.97;;;23.01;43.46
79527;BME280;68974;47.754;-3.364;2023-06-26T08:13:03;102356.59;;;23.22;43.15
79527;BME280;68974;47.754;-3.364;2023-06-26T08:15:28;102359.88;;;23.07;43.42
79527;BME280;68974;47.754;-3.364;2023-06-26T08:17:53;102358.28;;;23.66;41.59
79527;BME280;68974;47.754;-3.364;2023-06-26T08:20:19;102362.56;;;23.90;40.88
79527;BME280;68974;47.754;-3.364;2023-06-26T08:22:45;102371.47;;;24.17;40.70
79527;BME280;68974;47.754;-3.364;2023-06-26T08:25:13;102368.66;;;24.17;40.32
79527;BME280;68974;47.754;-3.364;2023-06-26T08:27:38;102367.81;;;24.26;40.53
79527;BME280;68974;47.754;-3.364;2023-06-26T08:30:04;102372.03;;;24.49;39.56
79527;BME280;68974;47.754;-3.364;2023-06-26T08:32:30;102379.00;;;24.43;39.55
79527;BME280;68974;47.754;-3.364;2023-06-26T08:34:55;102387.94;;;24.74;38.44
79527;BME280;68974;47.754;-3.364;2023-06-26T08:37:21;102370.56;;;24.89;37.78
79527;BME280;68974;47.754;-3.364;2023-06-26T08:39:47;102376.25;;;24.72;37.76
79527;BME280;68974;47.754;-3.364;2023-06-26T08:42:13;102379.31;;;24.88;37.98
79527;BME280;68974;47.754;-3.364;2023-06-26T08:44:38;102381.41;;;24.62;36.53
79527;BME280;68974;47.754;-3.364;2023-06-26T08:47:04;102381.72;;;23.62;37.91
79527;BME280;68974;47.754;-3.364;2023-06-26T08:49:37;102384.69;;;24.08;36.75
79527;BME280;68974;47.754;-3.364;2023-06-26T08:52:17;102379.91;;;24.64;36.55
79527;BME280;68974;47.754;-3.364;2023-06-26T08:54:54;102384.28;;;24.91;33.56
79527;BME280;68974;47.754;-3.364;2023-06-26T08:57:22;102394.34;;;25.42;32.74
79527;BME280;68974;47.754;-3.364;2023-06-26T08:59:48;102386.75;;;25.42;33.35
79527;BME280;68974;47.754;-3.364;2023-06-26T09:02:14;102385.00;;;25.79;32.50
79527;BME280;68974;47.754;-3.364;2023-06-26T09:04:40;102391.66;;;26.08;32.24
79527;BME280;68974;47.754;-3.364;2023-06-26T09:07:05;102386.69;;;25.72;31.74
79527;BME280;68974;47.754;-3.364;2023-06-26T09:09:31;102392.63;;;25.29;33.09
79527;BME280;68974;47.754;-3.364;2023-06-26T09:11:56;102392.78;;;24.65;34.64
79527;BME280;68974;47.754;-3.364;2023-06-26T09:14:22;102387.94;;;24.36;36.19
79527;BME280;68974;47.754;-3.364;2023-06-26T09:16:48;102395.22;;;24.75;35.28
79527;BME280;68974;47.754;-3.364;2023-06-26T09:19:13;102403.59;;;24.92;35.34
79527;BME280;68974;47.754;-3.364;2023-06-26T09:21:41;102389.19;;;24.56;34.06
79527;BME280;68974;47.754;-3.364;2023-06-26T09:24:07;102388.72;;;24.45;34.93
79527;BME280;68974;47.754;-3.364;2023-06-26T09:26:37;102393.38;;;24.79;34.63
79527;BME280;68974;47.754;-3.364;2023-06-26T09:29:04;102389.72;;;25.46;33.62
79527;BME280;68974;47.754;-3.364;2023-06-26T09:31:30;102390.97;;;26.11;33.15
79527;BME280;68974;47.754;-3.364;2023-06-26T09:33:58;102387.31;;;26.10;31.48
79527;BME280;68974;47.754;-3.364;2023-06-26T09:36:29;102400.28;;;25.49;33.39
79527;BME280;68974;47.754;-3.364;2023-06-26T09:39:04;102401.38;;;25.77;34.03
79527;BME280;68974;47.754;-3.364;2023-06-26T09:41:33;102400.66;;;24.80;34.23
79527;BME280;68974;47.754;-3.364;2023-06-26T09:44:01;102398.88;;;24.03;35.65
79527;BME280;68974;47.754;-3.364;2023-06-26T09:46:28;102384.97;;;24.33;35.22
79527;BME280;68974;47.754;-3.364;2023-06-26T09:49:04;102397.59;;;24.65;33.93
79527;BME280;68974;47.754;-3.364;2023-06-26T09:51:34;102389.22;;;25.44;33.23
79527;BME280;68974;47.754;-3.364;2023-06-26T09:54:00;102385.31;;;25.99;31.85
79527;BME280;68974;47.754;-3.364;2023-06-26T09:56:28;102382.03;;;26.42;32.30
79527;BME280;68974;47.754;-3.364;2023-06-26T09:58:57;102385.06;;;27.06;30.78
79527;BME280;68974;47.754;-3.364;2023-06-26T10:01:24;102376.66;;;27.34;30.04
79527;BME280;68974;47.754;-3.364;2023-06-26T10:03:49;102367.81;;;27.87;29.46
79527;BME280;68974;47.754;-3.364;2023-06-26T10:06:19;102372.00;;;28.21;28.10
79527;BME280;68974;47.754;-3.364;2023-06-26T10:08:46;102364.56;;;28.44;28.01
79527;BME280;68974;47.754;-3.364;2023-06-26T10:11:16;102372.41;;;28.20;28.26
79527;BME280;68974;47.754;-3.364;2023-06-26T10:13:42;102378.75;;;27.37;28.57
79527;BME280;68974;47.754;-3.364;2023-06-26T10:16:11;102376.09;;;26.67;30.14
79527;BME280;68974;47.754;-3.364;2023-06-26T10:18:42;102370.34;;;26.19;31.03
79527;BME280;68974;47.754;-3.364;2023-06-26T10:21:09;102381.06;;;25.93;31.35
79527;BME280;68974;47.754;-3.364;2023-06-26T10:23:39;102383.00;;;25.59;32.27
79527;BME280;68974;47.754;-3.364;2023-06-26T10:26:06;102378.34;;;25.13;33.12
79527;BME280;68974;47.754;-3.364;2023-06-26T10:28:33;102383.72;;;24.97;34.54
79527;BME280;68974;47.754;-3.364;2023-06-26T10:31:01;102380.31;;;24.92;34.36
79527;BME280;68974;47.754;-3.364;2023-06-26T10:33:29;102376.00;;;24.48;34.09
79527;BME280;68974;47.754;-3.364;2023-06-26T10:36:12;102385.19;;;24.66;35.47
79527;BME280;68974;47.754;-3.364;2023-06-26T10:39:01;102380.53;;;24.23;39.46
79527;BME280;68974;47.754;-3.364;2023-06-26T10:41:39;102384.00;;;24.20;41.29
79527;BME280;68974;47.754;-3.364;2023-06-26T10:44:09;102383.31;;;24.14;42.22
79527;BME280;68974;47.754;-3.364;2023-06-26T10:46:55;102390.72;;;24.45;40.23
79527;BME280;68974;47.754;-3.364;2023-06-26T10:49:25;102378.06;;;24.22;40.60
79527;BME280;68974;47.754;-3.364;2023-06-26T10:51:51;102388.44;;;24.30;41.01
79527;BME280;68974;47.754;-3.364;2023-06-26T10:54:19;102396.56;;;24.05;40.67
79527;BME280;68974;47.754;-3.364;2023-06-26T10:59:17;102389.97;;;25.53;37.48
79527;BME280;68974;47.754;-3.364;2023-06-26T11:01:43;102387.28;;;26.88;35.40
79527;BME280;68974;47.754;-3.364;2023-06-26T11:04:10;102375.00;;;27.33;32.80
79527;BME280;68974;47.754;-3.364;2023-06-26T11:06:37;102379.63;;;27.77;32.24
79527;BME280;68974;47.754;-3.364;2023-06-26T11:09:08;102384.81;;;28.47;31.86
79527;BME280;68974;47.754;-3.364;2023-06-26T11:14:22;102377.56;;;28.18;30.23
79527;BME280;68974;47.754;-3.364;2023-06-26T11:16:48;102375.16;;;28.48;30.38
79527;BME280;68974;47.754;-3.364;2023-06-26T11:19:15;102377.28;;;28.82;31.02
79527;BME280;68974;47.754;-3.364;2023-06-26T11:21:41;102366.63;;;29.10;30.10
79527;BME280;68974;47.754;-3.364;2023-06-26T11:24:07;102373.69;;;28.54;31.58
79527;BME280;68974;47.754;-3.364;2023-06-26T11:26:40;102370.81;;;27.67;32.91
79527;BME280;68974;47.754;-3.364;2023-06-26T11:29:06;102370.84;;;26.90;34.31
79527;BME280;68974;47.754;-3.364;2023-06-26T11:31:34;102386.53;;;26.55;35.30
79527;BME280;68974;47.754;-3.364;2023-06-26T11:34:02;102390.34;;;25.72;36.11
79527;BME280;68974;47.754;-3.364;2023-06-26T11:36:28;102385.28;;;25.16;38.87
79527;BME280;68974;47.754;-3.364;2023-06-26T11:39:00;102368.41;;;24.86;39.74
79527;BME280;68974;47.754;-3.364;2023-06-26T11:41:27;102383.66;;;24.77;40.93
79527;BME280;68974;47.754;-3.364;2023-06-26T11:43:54;102372.56;;;24.42;40.80
79527;BME280;68974;47.754;-3.364;2023-06-26T11:46:21;102373.75;;;24.33;41.48
79527;BME280;68974;47.754;-3.364;2023-06-26T11:48:47;102380.34;;;24.37;41.17
79527;BME280;68974;47.754;-3.364;2023-06-26T11:51:14;102375.94;;;24.19;40.90
79527;BME280;68974;47.754;-3.364;2023-06-26T11:53:44;102376.63;;;24.53;40.98
79527;BME280;68974;47.754;-3.364;2023-06-26T11:56:14;102370.63;;;25.31;39.18
79527;BME280;68974;47.754;-3.364;2023-06-26T11:59:11;102375.72;;;26.69;36.66
79527;BME280;68974;47.754;-3.364;2023-06-26T12:01:38;102377.13;;;27.36;34.64
79527;BME280;68974;47.754;-3.364;2023-06-26T12:04:07;102363.75;;;27.73;34.02
79527;BME280;68974;47.754;-3.364;2023-06-26T12:06:34;102370.53;;;28.12;33.64
79527;BME280;68974;47.754;-3.364;2023-06-26T12:09:02;102367.84;;;28.47;33.47
79527;BME280;68974;47.754;-3.364;2023-06-26T12:11:32;102368.84;;;28.70;32.97
79527;BME280;68974;47.754;-3.364;2023-06-26T12:13:59;102373.41;;;28.90;32.04
79527;BME280;68974;47.754;-3.364;2023-06-26T12:16:25;102375.41;;;29.05;32.71
79527;BME280;68974;47.754;-3.364;2023-06-26T12:18:58;102374.84;;;29.15;31.81
79527;BME280;68974;47.754;-3.364;2023-06-26T12:24:12;102370.59;;;28.90;31.89
79527;BME280;68974;47.754;-3.364;2023-06-26T12:26:37;102365.22;;;28.54;32.24
79527;BME280;68974;47.754;-3.364;2023-06-26T12:29:05;102360.66;;;27.78;34.06
79527;BME280;68974;47.754;-3.364;2023-06-26T12:31:31;102371.56;;;28.19;33.90
79527;BME280;68974;47.754;-3.364;2023-06-26T12:33:56;102361.88;;;28.20;32.82
79527;BME280;68974;47.754;-3.364;2023-06-26T12:36:22;102355.81;;;28.34;32.62
79527;BME280;68974;47.754;-3.364;2023-06-26T12:38:48;102366.28;;;28.06;33.90
79527;BME280;68974;47.754;-3.364;2023-06-26T12:41:14;102358.38;;;27.03;35.47
79527;BME280;68974;47.754;-3.364;2023-06-26T12:43:40;102353.19;;;27.70;34.97
79527;BME280;68974;47.754;-3.364;2023-06-26T12:46:06;102351.28;;;27.74;34.12
79527;BME280;68974;47.754;-3.364;2023-06-26T12:48:41;102356.44;;;27.72;34.85
79527;BME280;68974;47.754;-3.364;2023-06-26T12:51:13;102354.41;;;28.12;33.97
79527;BME280;68974;47.754;-3.364;2023-06-26T12:53:39;102356.81;;;28.41;33.50